Air Navigation Services of Czech Republic  
Last data update:  07.02.2023 14:54:32 UTC česká verze
   METEO Page displayed:  07.02.2023 14:55:55 UTC  
vysvětlivky
METAR EDAC 071420Z VRB02KT 6000 SCT006 M04/// Q1041=
METAR EDDB 071450Z AUTO VRB02KT CAVOK 02/M06 Q1041 NOSIG=
METAR EDDC 071450Z AUTO 31007KT CAVOK M01/M05 Q1039 NOSIG=
METAR EDDE 071450Z AUTO 04004KT CAVOK M01/M04 Q1039 NOSIG=
METAR EDDF 071450Z AUTO 05008KT CAVOK 04/M06 Q1039 NOSIG=
METAR EDDM 071450Z AUTO 06008KT CAVOK 01/M08 Q1036 NOSIG=
METAR EDDN 071450Z AUTO 09005KT 050V120 CAVOK 03/M09 Q1038 NOSIG=
METAR EDDP 071450Z AUTO VRB01KT 5000 BR BKN005 M04/M04 Q1041 TEMPO SCT005=
METAR EDQM 071420Z 02005KT CAVOK M00/M09 Q1037=
METAR EPBY 071430Z 24005KT 9999 BKN024 01/M03 Q1040=
METAR EPGD 071430Z 25005KT 210V270 CAVOK 01/M02 Q1039=
METAR EPKK 071430Z 22007KT 4500 BR BKN015 M03/M06 Q1039=
METAR EPKT 071430Z 32006KT 9999 SCT012 BKN015 M03/M05 Q1039=
METAR EPLB 071430Z 33004KT 300V360 9999 SCT016 OVC022 M00/M02 Q1038=
METAR EPLL 071430Z 30005KT 270V330 9999 OVC024 M02/M04 Q1039=
METAR EPMO 071430Z 30007KT 9999 BKN027 00/M02 Q1039=
METAR EPPO 071430Z 28004KT 9999 OVC024 M00/M05 Q1041=
METAR EPRZ 071430Z 30007KT 270V330 8000 OVC009 M02/M04 Q1038=
METAR EPWA 071430Z 30008KT 9999 BKN030 00/M03 Q1039 NOSIG=
METAR EPWR 071430Z VRB03KT 9999 BKN025 M00/M06 Q1041=
METAR LHBP 071430Z 11003KT 080V140 CAVOK 01/M09 Q1038 NOSIG=
METAR LHSM 071415Z AUTO 03005KT 340V110 CAVOK 01/M07 Q1038 NOSIG=
METAR LKBC NIL
METAR LKCS 071430Z AUTO 30003KT 240V010 CAVOK M01/M08 Q1038=
METAR LKCV 071400Z VRB02KT CAVOK M00/M07 Q1039 NOSIG RMK BLU BLU=
METAR LKKB 071430Z 00000KT CAVOK 01/M07 Q1039 NOSIG RMK BLU BLU=
METAR LKKU 071400Z 35015KT 9999 FEW027 M01/M07 Q1039=
METAR LKKV 071430Z VRB02KT CAVOK 00/M08 Q1037=
METAR LKLN 071430Z AUTO 07004KT CAVOK 01/M09 Q1038=
METAR LKMT 071430Z 05007KT 7000 OVC019 M03/M06 Q1040 NOSIG=
METAR LKNA 071430Z 34006KT CAVOK M01/M08 Q1037 NOSIG RMK BLU BLU=
METAR LKPD 071430Z VRB02KT CAVOK M01/M06 Q1040 NOSIG RMK BLU BLU=
METAR LKPJ 071430Z AUTO 06008KT 9999 FEW025/// M02/M07 Q1040=
METAR LKPR 071430Z VRB01KT CAVOK M01/M07 Q1038 NOSIG=
METAR LKTB 071430Z 08009KT 9999 FEW024 M01/M06 Q1039 NOSIG=
METAR LKVO NIL
METAR LOWG 071420Z AUTO VRB02KT CAVOK 02/M11 Q1036 NOSIG=
METAR LOWI 071420Z VRB04KT CAVOK 05/M06 Q1032 NOSIG=
METAR LOWK 071420Z 10004KT 070V140 CAVOK M01/M07 Q1035 NOSIG=
METAR LOWL 071420Z AUTO 11005KT 070V150 9999 NCD 01/M07 Q1038 NOSIG=
METAR LOWS 071420Z 02006KT 340V050 CAVOK 02/M06 Q1036 NOSIG=
METAR LOWW 071420Z 35010KT CAVOK 00/M07 Q1039 NOSIG=
METAR LOXZ 071420Z 31002KT 9999 FEW160 M03/M11 Q1034 NOSIG=
METAR LZIB 071430Z VRB01KT CAVOK 01/M09 Q1038 NOSIG=
METAR LZKZ 071430Z 02011KT 9999 BKN029 M00/M07 Q1037 NOSIG=
METAR LZPP 071430Z 35011KT CAVOK 01/M08 Q1038=
METAR LZTT 071430Z VRB02KT 9999 -SN FEW033 BKN050 M05/M10 Q1035 NOSIG=
METAR LZZI 071430Z 06006KT 9999 SCT032 M02/M07 Q1038=